Portada
METAR-TAF:

METAR-TAF

Aeropuertos :

Rarotonga, Islas Cook

Aeropuerto Internacional Rarotonga

latitud: 21-12S, longitud: 159-49W, altitud: 7 m

Observación

El informe se hizo hace 5 minutos, a las 02:00 UTC
Viento 3 kt del oeste-suroeste
Temperatura 28°C
Humedad 70%
Presión 1009 hPa
Visibilidad 10 km o más
Nubes dispersas a una altura de 2100 ft
Cielo nuboso a una altura de 10000 ft

METAR: NCRG 230200Z 24003KT 9999 SCT021 BKN100 28/22 Q1009

Hora: 16:05 (02:05 UTC)

Pronóstico

El informe se hizo hace 2 horas y 57 minutos, a las 23:08 UTC
Pronóstico válido del 23 a las 00 UTC al 23 a las 24 UTC
Viento 5 kt del sur
Visibilidad 10 km o más
Escasas nubes a una altura de 2000 ft
Nubes dispersas a una altura de 10000 ft
Probabilidad 30% :
Temporalmente
del 23 a las 04 UTC al 23 a las 06 UTC
Visibilidad: 5000 m
Cielo nuboso a una altura de 1500 ft
chaparrones de lluvia

TAF: NCRG 222308Z 2300/2324 18005KT 9999 FEW020 SCT100 PROB30 TEMPO 2304/2306 5000 SHRA BKN015

Observaciones y pronósticos meteorológicos de más de 4000 aeropuertos (mensajes METAR y TAF).

Los puntos amarillos y rojos representan las estaciones disponibles.

Ponga el ratón en el punto deseado para ver el nombre de la estación.

Haga clic para ver las observaciones y los pronósticos meteorológicos.

Para cambiar el mapa : haga clic en los botones verdes con una cruz de color negro para hacer un zoom, en el botón verde con un guión para alejar o en las flechas verdes para mapas adyacentes.


METAR-TAF: